EGEO/OBN METAR and TAF weather

Enter ICAO airport designator
Station Type Date Time Source
EGEO METAR 2019/11/11 15:50 UTC NOAA

EGEO 111550Z 31023KT 8000 SHRAGS FEW014 BKN021 07/05 Q0991


Station Type Date Time Source
EGEO Decoded METAR 2019/11/11 15:50 UTC NOAA

Station name not available
Nov 11, 2019 - 10:50 AM EST / 2019.11.11 1550 UTC
Wind: from the NW (310 degrees) at 26 MPH (23 KT):0
Visibility: 4 mile(s):0
Sky conditions: mostly cloudy
Weather: rain showers, snow pellets
Temperature: 44 F (7 C)
Dew Point: 41 F (5 C)
Relative Humidity: 87%
Pressure (altimeter): 29.26 in. Hg (0991 hPa)
ob: EGEO 111550Z 31023KT 8000 SHRAGS FEW014 BKN021 07/05 Q0991
cycle: 16

Station Type Date Time Source
EGEO TAF UTC NOAA

Error!

Example: see airport list